createdAt,value
2018-03-20T00:00:02.303Z,-4.17
2018-03-20T00:00:06.419Z,-4.17
2018-03-20T00:00:10.641Z,-4.16
2018-03-20T00:00:15.039Z,-4.17
2018-03-20T00:00:19.160Z,-4.17
2018-03-20T00:00:23.286Z,-4.17
2018-03-20T00:00:27.399Z,-4.18
2018-03-20T00:00:31.518Z,-4.18
2018-03-20T00:00:35.418Z,-4.17
2018-03-20T00:00:39.642Z,-4.17
2018-03-20T00:00:43.866Z,-4.18
2018-03-20T00:00:48.195Z,-4.19
2018-03-20T00:00:52.308Z,-4.18
2018-03-20T00:00:56.106Z,-4.17
2018-03-20T00:01:00.216Z,-4.18
2018-03-20T00:01:04.222Z,-4.2
2018-03-20T00:01:08.565Z,-4.18
2018-03-20T00:01:12.805Z,-4.18
2018-03-20T00:01:16.936Z,-4.19
2018-03-20T00:01:21.163Z,-4.19
2018-03-20T00:01:25.380Z,-4.2
2018-03-20T00:01:29.496Z,-4.18
2018-03-20T00:01:33.511Z,-4.19
2018-03-20T00:01:37.529Z,-4.19
2018-03-20T00:01:41.654Z,-4.21
2018-03-20T00:01:45.880Z,-4.2
2018-03-20T00:01:50.109Z,-4.2
2018-03-20T00:01:54.242Z,-4.19
2018-03-20T00:01:58.364Z,-4.19
2018-03-20T00:02:02.592Z,-4.2
2018-03-20T00:02:06.490Z,-4.21
2018-03-20T00:02:10.710Z,-4.19
2018-03-20T00:02:14.823Z,-4.19
2018-03-20T00:02:19.049Z,-4.2
2018-03-20T00:02:23.270Z,-4.19
2018-03-20T00:02:27.279Z,-4.21
2018-03-20T00:02:31.292Z,-4.21
2018-03-20T00:02:35.413Z,-4.21
2018-03-20T00:02:39.650Z,-4.21
2018-03-20T00:02:43.876Z,-4.2
2018-03-20T00:02:48.210Z,-4.2
2018-03-20T00:02:52.442Z,-4.21
2018-03-20T00:02:56.668Z,-4.21
2018-03-20T00:03:00.997Z,-4.21
2018-03-20T00:03:05.472Z,-4.22
2018-03-20T00:03:09.690Z,-4.22
2018-03-20T00:03:13.785Z,-4.21
2018-03-20T00:03:17.795Z,-4.22
2018-03-20T00:03:21.912Z,-4.22
2018-03-20T00:03:26.134Z,-4.22
2018-03-20T00:03:30.249Z,-4.22
2018-03-20T00:03:34.579Z,-4.22
2018-03-20T00:03:38.692Z,-4.22
2018-03-20T00:03:42.805Z,-4.22
2018-03-20T00:03:47.036Z,-4.22
2018-03-20T00:03:51.148Z,-4.22
2018-03-20T00:03:55.373Z,-4.23
2018-03-20T00:03:59.600Z,-4.22
2018-03-20T00:04:03.765Z,-4.22
2018-03-20T00:04:07.985Z,-4.23
2018-03-20T00:04:12.216Z,-4.23
2018-03-20T00:04:16.547Z,-4.22
2018-03-20T00:04:20.886Z,-4.23
2018-03-20T00:04:24.891Z,-4.22
2018-03-20T00:04:28.676Z,-4.23
2018-03-20T00:04:32.906Z,-4.23
2018-03-20T00:04:36.927Z,-4.23
2018-03-20T00:04:41.253Z,-4.24
2018-03-20T00:04:45.368Z,-4.23
2018-03-20T00:04:49.487Z,-4.23
2018-03-20T00:04:53.598Z,-4.23
2018-03-20T00:04:57.604Z,-4.24
2018-03-20T00:05:01.881Z,-4.24
2018-03-20T00:05:05.782Z,-4.23
2018-03-20T00:05:10.110Z,-4.24
2018-03-20T00:05:14.336Z,-4.23
2018-03-20T00:05:18.563Z,-4.24
2018-03-20T00:05:22.788Z,-4.24
2018-03-20T00:05:27.025Z,-4.23
2018-03-20T00:05:31.137Z,-4.25
2018-03-20T00:05:35.032Z,-4.25
2018-03-20T00:05:38.942Z,-4.24
2018-03-20T00:05:43.171Z,-4.24
2018-03-20T00:05:47.393Z,-4.23
2018-03-20T00:05:51.507Z,-4.25
2018-03-20T00:05:55.837Z,-4.24
2018-03-20T00:06:00.068Z,-4.25
2018-03-20T00:06:04.438Z,-4.24
2018-03-20T00:06:08.560Z,-4.24
2018-03-20T00:06:12.789Z,-4.25
2018-03-20T00:06:17.124Z,-4.24
2018-03-20T00:06:21.360Z,-4.24
2018-03-20T00:06:25.589Z,-4.25
2018-03-20T00:06:29.697Z,-4.25
2018-03-20T00:06:33.814Z,-4.26
2018-03-20T00:06:38.039Z,-4.26
2018-03-20T00:06:42.367Z,-4.25
2018-03-20T00:06:46.474Z,-4.25
2018-03-20T00:06:50.598Z,-4.25
2018-03-20T00:06:54.725Z,-4.25
2018-03-20T00:06:58.521Z,-4.25
2018-03-20T00:07:02.649Z,-4.26
2018-03-20T00:07:06.778Z,-4.26
2018-03-20T00:07:11.115Z,-4.26
2018-03-20T00:07:15.329Z,-4.26
2018-03-20T00:07:19.450Z,-4.26
2018-03-20T00:07:23.458Z,-4.27
2018-03-20T00:07:27.253Z,-4.26
2018-03-20T00:07:31.420Z,-4.26
2018-03-20T00:07:35.548Z,-4.26
2018-03-20T00:07:39.766Z,-4.27
2018-03-20T00:07:43.878Z,-4.26
2018-03-20T00:07:47.996Z,-4.26
2018-03-20T00:07:52.111Z,-4.26
2018-03-20T00:07:56.327Z,-4.26
2018-03-20T00:08:00.649Z,-4.26
2018-03-20T00:08:04.903Z,-4.26
2018-03-20T00:08:09.038Z,-4.27
2018-03-20T00:08:13.051Z,-4.26
2018-03-20T00:08:16.953Z,-4.27
2018-03-20T00:08:21.312Z,-4.27
2018-03-20T00:08:25.430Z,-4.27
2018-03-20T00:08:29.556Z,-4.26
2018-03-20T00:08:33.671Z,-4.26
2018-03-20T00:08:37.910Z,-4.27
2018-03-20T00:08:42.130Z,-4.27
2018-03-20T00:08:46.246Z,-4.28
2018-03-20T00:08:50.580Z,-4.27
2018-03-20T00:08:54.701Z,-4.28
2018-03-20T00:08:58.711Z,-4.27
2018-03-20T00:09:02.732Z,-4.27
2018-03-20T00:09:06.843Z,-4.27
2018-03-20T00:09:10.971Z,-4.27
2018-03-20T00:09:15.157Z,-4.27
2018-03-20T00:09:19.492Z,-4.28
2018-03-20T00:09:23.825Z,-4.28
2018-03-20T00:09:27.938Z,-4.28
2018-03-20T00:09:32.175Z,-4.27
2018-03-20T00:09:36.523Z,-4.28
2018-03-20T00:09:40.645Z,-4.28
2018-03-20T00:09:44.761Z,-4.28
2018-03-20T00:09:48.876Z,-4.28
2018-03-20T00:09:53.120Z,-4.28
2018-03-20T00:09:57.338Z,-4.28
2018-03-20T00:10:01.463Z,-4.29
2018-03-20T00:10:05.733Z,-4.28
2018-03-20T00:10:10.012Z,-4.28
2018-03-20T00:10:14.352Z,-4.28
2018-03-20T00:10:18.353Z,-4.29
2018-03-20T00:10:22.632Z,-4.3
2018-03-20T00:10:26.749Z,-4.28
2018-03-20T00:10:31.077Z,-4.29
2018-03-20T00:10:35.141Z,-4.29
2018-03-20T00:10:39.153Z,-4.29
2018-03-20T00:10:43.423Z,-4.29
2018-03-20T00:10:47.432Z,-4.29
2018-03-20T00:10:51.657Z,-4.29
2018-03-20T00:10:55.883Z,-4.29
2018-03-20T00:10:59.891Z,-4.29
2018-03-20T00:11:04.008Z,-4.29
2018-03-20T00:11:08.230Z,-4.3
2018-03-20T00:11:12.374Z,-4.3
2018-03-20T00:11:16.489Z,-4.31
2018-03-20T00:11:20.716Z,-4.3
2018-03-20T00:11:24.835Z,-4.3
2018-03-20T00:11:29.178Z,-4.29
2018-03-20T00:11:33.520Z,-4.29
2018-03-20T00:11:37.743Z,-4.29
2018-03-20T00:11:41.643Z,-4.3
2018-03-20T00:11:45.980Z,-4.29
2018-03-20T00:11:50.111Z,-4.3
2018-03-20T00:11:54.225Z,-4.3
2018-03-20T00:11:58.339Z,-4.3
2018-03-20T00:12:02.467Z,-4.31
2018-03-20T00:12:06.684Z,-4.31
2018-03-20T00:12:10.797Z,-4.31
2018-03-20T00:12:14.929Z,-4.31
2018-03-20T00:12:19.159Z,-4.3
2018-03-20T00:12:23.385Z,-4.31
2018-03-20T00:12:27.406Z,-4.31
2018-03-20T00:12:31.518Z,-4.31
2018-03-20T00:12:35.416Z,-4.31
2018-03-20T00:12:39.745Z,-4.31
2018-03-20T00:12:44.139Z,-4.31
2018-03-20T00:12:48.368Z,-4.32
2018-03-20T00:12:52.380Z,-4.31
2018-03-20T00:12:56.286Z,-4.32
2018-03-20T00:13:00.185Z,-4.31
2018-03-20T00:13:04.087Z,-4.31
2018-03-20T00:13:08.088Z,-4.31
2018-03-20T00:13:12.340Z,-4.32
2018-03-20T00:13:16.591Z,-4.32
2018-03-20T00:13:20.865Z,-4.32
2018-03-20T00:13:25.095Z,-4.32
2018-03-20T00:13:29.437Z,-4.31
2018-03-20T00:13:33.549Z,-4.31
2018-03-20T00:13:37.659Z,-4.33
2018-03-20T00:13:41.774Z,-4.32
2018-03-20T00:13:45.780Z,-4.32
2018-03-20T00:13:49.900Z,-4.32
2018-03-20T00:13:54.126Z,-4.32
2018-03-20T00:13:58.135Z,-4.32
2018-03-20T00:14:02.414Z,-4.33
2018-03-20T00:14:06.538Z,-4.32
2018-03-20T00:14:10.868Z,-4.32
2018-03-20T00:14:14.875Z,-4.33
2018-03-20T00:14:18.919Z,-4.33
2018-03-20T00:14:23.141Z,-4.32
2018-03-20T00:14:27.166Z,-4.32
2018-03-20T00:14:31.500Z,-4.32
2018-03-20T00:14:35.714Z,-4.33
2018-03-20T00:14:39.827Z,-4.33
2018-03-20T00:14:43.736Z,-4.33
2018-03-20T00:14:47.748Z,-4.32
2018-03-20T00:14:51.977Z,-4.33
2018-03-20T00:14:56.206Z,-4.33
2018-03-20T00:15:00.368Z,-4.33
2018-03-20T00:15:04.543Z,-4.32
2018-03-20T00:15:08.550Z,-4.33
2018-03-20T00:15:12.777Z,-4.33
2018-03-20T00:15:16.898Z,-4.32
2018-03-20T00:15:21.013Z,-4.33
2018-03-20T00:15:25.136Z,-4.33
2018-03-20T00:15:29.469Z,-4.33
2018-03-20T00:15:33.587Z,-4.33
2018-03-20T00:15:37.861Z,-4.33
2018-03-20T00:15:41.985Z,-4.33
2018-03-20T00:15:46.107Z,-4.33
2018-03-20T00:15:50.343Z,-4.33
2018-03-20T00:15:54.352Z,-4.34
2018-03-20T00:15:58.570Z,-4.34
2018-03-20T00:16:02.803Z,-4.33
2018-03-20T00:16:07.041Z,-4.33
2018-03-20T00:16:11.172Z,-4.33
2018-03-20T00:16:15.298Z,-4.34
2018-03-20T00:16:19.424Z,-4.34
2018-03-20T00:16:23.655Z,-4.33
2018-03-20T00:16:27.783Z,-4.34
2018-03-20T00:16:32.006Z,-4.34
2018-03-20T00:16:36.123Z,-4.34
2018-03-20T00:16:40.344Z,-4.34
2018-03-20T00:16:44.575Z,-4.34
2018-03-20T00:16:48.693Z,-4.33
2018-03-20T00:16:52.593Z,-4.33
2018-03-20T00:16:56.820Z,-4.34
2018-03-20T00:17:01.054Z,-4.34
2018-03-20T00:17:05.580Z,-4.34
2018-03-20T00:17:09.800Z,-4.34
2018-03-20T00:17:14.143Z,-4.35
2018-03-20T00:17:18.265Z,-4.34
2018-03-20T00:17:22.494Z,-4.34
2018-03-20T00:17:26.614Z,-4.34
2018-03-20T00:17:30.838Z,-4.35
2018-03-20T00:17:35.066Z,-4.33
2018-03-20T00:17:39.400Z,-4.34
2018-03-20T00:17:43.535Z,-4.34
2018-03-20T00:17:47.755Z,-4.36
2018-03-20T00:17:51.874Z,-4.34
2018-03-20T00:17:56.238Z,-4.35
2018-03-20T00:18:00.452Z,-4.34
2018-03-20T00:18:04.680Z,-4.35
2018-03-20T00:18:08.792Z,-4.34
2018-03-20T00:18:13.022Z,-4.35
2018-03-20T00:18:17.260Z,-4.34
2018-03-20T00:18:21.477Z,-4.36
2018-03-20T00:18:25.701Z,-4.34
2018-03-20T00:18:29.828Z,-4.36
2018-03-20T00:18:33.947Z,-4.34
2018-03-20T00:18:38.177Z,-4.34
2018-03-20T00:18:41.970Z,-4.35
2018-03-20T00:18:46.199Z,-4.35
2018-03-20T00:18:50.530Z,-4.34
2018-03-20T00:18:54.745Z,-4.35
2018-03-20T00:18:58.861Z,-4.36
2018-03-20T00:19:02.989Z,-4.35
2018-03-20T00:19:07.222Z,-4.34
2018-03-20T00:19:11.340Z,-4.35
2018-03-20T00:19:15.345Z,-4.35
2018-03-20T00:19:19.512Z,-4.34
2018-03-20T00:19:23.425Z,-4.35
2018-03-20T00:19:27.554Z,-4.34
2018-03-20T00:19:31.669Z,-4.34
2018-03-20T00:19:35.999Z,-4.34
2018-03-20T00:19:40.034Z,-4.35
2018-03-20T00:19:44.257Z,-4.35
2018-03-20T00:19:48.486Z,-4.35
2018-03-20T00:19:52.701Z,-4.35
2018-03-20T00:19:56.819Z,-4.35
2018-03-20T00:20:01.031Z,-4.35
2018-03-20T00:20:05.074Z,-4.35
2018-03-20T00:20:09.309Z,-4.34
2018-03-20T00:20:13.535Z,-4.34
2018-03-20T00:20:17.645Z,-4.36
2018-03-20T00:20:21.657Z,-4.35
2018-03-20T00:20:25.886Z,-4.36
2018-03-20T00:20:30.223Z,-4.35
2018-03-20T00:20:34.547Z,-4.35
2018-03-20T00:20:38.879Z,-4.36
2018-03-20T00:20:42.889Z,-4.36
2018-03-20T00:20:47.124Z,-4.35
2018-03-20T00:20:51.131Z,-4.36
2018-03-20T00:20:55.476Z,-4.35
2018-03-20T00:20:59.713Z,-4.35
2018-03-20T00:21:03.878Z,-4.36
2018-03-20T00:21:08.001Z,-4.35
2018-03-20T00:21:12.120Z,-4.35
2018-03-20T00:21:16.343Z,-4.36
2018-03-20T00:21:20.459Z,-4.35
2018-03-20T00:21:24.569Z,-4.35
2018-03-20T00:21:28.686Z,-4.36
2018-03-20T00:21:32.912Z,-4.36
2018-03-20T00:21:37.024Z,-4.35
2018-03-20T00:21:41.365Z,-4.36
2018-03-20T00:21:45.590Z,-4.36
2018-03-20T00:21:49.709Z,-4.35
2018-03-20T00:21:53.831Z,-4.36
2018-03-20T00:21:57.953Z,-4.36
2018-03-20T00:22:02.387Z,-4.35
2018-03-20T00:22:06.617Z,-4.35
2018-03-20T00:22:10.527Z,-4.36
2018-03-20T00:22:14.859Z,-4.36
2018-03-20T00:22:19.203Z,-4.36
2018-03-20T00:22:23.322Z,-4.36
2018-03-20T00:22:27.438Z,-4.35
2018-03-20T00:22:31.445Z,-4.35
2018-03-20T00:22:35.560Z,-4.35
2018-03-20T00:22:39.569Z,-4.35
2018-03-20T00:22:43.790Z,-4.36
2018-03-20T00:22:47.807Z,-4.36
2018-03-20T00:22:51.919Z,-4.36
2018-03-20T00:22:56.043Z,-4.35
2018-03-20T00:23:00.190Z,-4.36
2018-03-20T00:23:04.205Z,-4.36
2018-03-20T00:23:08.432Z,-4.35
2018-03-20T00:23:12.667Z,-4.36
2018-03-20T00:23:16.671Z,-4.36
2018-03-20T00:23:21.016Z,-4.36
2018-03-20T00:23:25.257Z,-4.36
2018-03-20T00:23:29.390Z,-4.35
2018-03-20T00:23:33.505Z,-4.36
2018-03-20T00:23:37.625Z,-4.35
2018-03-20T00:23:41.741Z,-4.36
2018-03-20T00:23:46.081Z,-4.36
2018-03-20T00:23:50.319Z,-4.35
2018-03-20T00:23:54.440Z,-4.36
2018-03-20T00:23:58.659Z,-4.35
2018-03-20T00:24:02.970Z,-4.35
2018-03-20T00:24:07.262Z,-4.36
2018-03-20T00:24:11.486Z,-4.36
2018-03-20T00:24:15.597Z,-4.35
2018-03-20T00:24:19.722Z,-4.36
2018-03-20T00:24:23.843Z,-4.36
2018-03-20T00:24:27.964Z,-4.35
2018-03-20T00:24:32.092Z,-4.35
2018-03-20T00:24:36.320Z,-4.35
2018-03-20T00:24:40.550Z,-4.35
2018-03-20T00:24:44.570Z,-4.35
2018-03-20T00:24:48.699Z,-4.35
2018-03-20T00:24:52.928Z,-4.35
2018-03-20T00:24:56.942Z,-4.36
2018-03-20T00:25:00.951Z,-4.35
2018-03-20T00:25:05.066Z,-4.36
2018-03-20T00:25:08.864Z,-4.35
2018-03-20T00:25:13.000Z,-4.36
2018-03-20T00:25:17.323Z,-4.35
2018-03-20T00:25:21.447Z,-4.34
2018-03-20T00:25:25.678Z,-4.35
2018-03-20T00:25:29.913Z,-4.35
2018-03-20T00:25:34.140Z,-4.35
2018-03-20T00:25:38.484Z,-4.35
2018-03-20T00:25:42.486Z,-4.34
2018-03-20T00:25:46.817Z,-4.35
2018-03-20T00:25:50.830Z,-4.35
2018-03-20T00:25:54.833Z,-4.35
2018-03-20T00:25:58.951Z,-4.35
2018-03-20T00:26:03.058Z,-4.35
2018-03-20T00:26:07.331Z,-4.34
2018-03-20T00:26:11.558Z,-4.35
2018-03-20T00:26:15.570Z,-4.36
2018-03-20T00:26:19.909Z,-4.35
2018-03-20T00:26:24.127Z,-4.34
2018-03-20T00:26:28.247Z,-4.35
2018-03-20T00:26:32.586Z,-4.35
2018-03-20T00:26:36.818Z,-4.36
2018-03-20T00:26:40.714Z,-4.35
2018-03-20T00:26:44.724Z,-4.35
2018-03-20T00:26:48.951Z,-4.35
2018-03-20T00:26:52.748Z,-4.35
2018-03-20T00:26:56.756Z,-4.34
2018-03-20T00:27:00.877Z,-4.34
2018-03-20T00:27:05.182Z,-4.35
2018-03-20T00:27:09.303Z,-4.35
2018-03-20T00:27:13.632Z,-4.35
2018-03-20T00:27:17.860Z,-4.34
2018-03-20T00:27:21.867Z,-4.35
2018-03-20T00:27:25.985Z,-4.34
2018-03-20T00:27:30.321Z,-4.35
2018-03-20T00:27:34.116Z,-4.35
2018-03-20T00:27:38.018Z,-4.35
2018-03-20T00:27:42.249Z,-4.35
2018-03-20T00:27:46.364Z,-4.35
2018-03-20T00:27:50.372Z,-4.34
2018-03-20T00:27:54.488Z,-4.34
2018-03-20T00:27:58.722Z,-4.34
2018-03-20T00:28:02.836Z,-4.34
2018-03-20T00:28:06.950Z,-4.34
2018-03-20T00:28:11.173Z,-4.34
2018-03-20T00:28:15.180Z,-4.34
2018-03-20T00:28:19.196Z,-4.34
2018-03-20T00:28:23.414Z,-4.33
2018-03-20T00:28:27.639Z,-4.35
2018-03-20T00:28:31.889Z,-4.34
2018-03-20T00:28:36.116Z,-4.34
2018-03-20T00:28:40.229Z,-4.34
2018-03-20T00:28:44.461Z,-4.33
2018-03-20T00:28:48.812Z,-4.34
2018-03-20T00:28:52.822Z,-4.34
2018-03-20T00:28:56.832Z,-4.34
2018-03-20T00:29:00.948Z,-4.34
2018-03-20T00:29:05.427Z,-4.34
2018-03-20T00:29:09.451Z,-4.34
2018-03-20T00:29:13.573Z,-4.34
2018-03-20T00:29:17.683Z,-4.34
2018-03-20T00:29:21.910Z,-4.34
2018-03-20T00:29:26.130Z,-4.34
2018-03-20T00:29:30.242Z,-4.33
2018-03-20T00:29:34.581Z,-4.34
2018-03-20T00:29:38.801Z,-4.34
2018-03-20T00:29:43.029Z,-4.34
2018-03-20T00:29:47.040Z,-4.33
2018-03-20T00:29:51.044Z,-4.33
2018-03-20T00:29:55.271Z,-4.34
2018-03-20T00:29:59.389Z,-4.33
2018-03-20T00:30:03.828Z,-4.34
2018-03-20T00:30:07.941Z,-4.34
2018-03-20T00:30:11.952Z,-4.33
2018-03-20T00:30:15.850Z,-4.33
2018-03-20T00:30:20.173Z,-4.33
2018-03-20T00:30:24.076Z,-4.34
2018-03-20T00:30:28.186Z,-4.33
2018-03-20T00:30:32.408Z,-4.33
2018-03-20T00:30:36.634Z,-4.33
2018-03-20T00:30:40.984Z,-4.34
2018-03-20T00:30:45.098Z,-4.33
2018-03-20T00:30:49.221Z,-4.33
2018-03-20T00:30:53.447Z,-4.33
2018-03-20T00:30:57.241Z,-4.33
2018-03-20T00:31:01.580Z,-4.32
2018-03-20T00:31:05.799Z,-4.32
2018-03-20T00:31:09.697Z,-4.33
2018-03-20T00:31:13.813Z,-4.33
2018-03-20T00:31:17.819Z,-4.33
2018-03-20T00:31:22.045Z,-4.33
2018-03-20T00:31:26.265Z,-4.32
2018-03-20T00:31:30.373Z,-4.33
2018-03-20T00:31:34.734Z,-4.32
2018-03-20T00:31:38.965Z,-4.32
2018-03-20T00:31:43.126Z,-4.32
2018-03-20T00:31:47.148Z,-4.33
2018-03-20T00:31:51.263Z,-4.33
2018-03-20T00:31:55.606Z,-4.32
2018-03-20T00:31:59.823Z,-4.32
2018-03-20T00:32:03.718Z,-4.31
2018-03-20T00:32:07.741Z,-4.32
2018-03-20T00:32:11.853Z,-4.32
2018-03-20T00:32:15.972Z,-4.32
2018-03-20T00:32:19.977Z,-4.32
2018-03-20T00:32:24.095Z,-4.32
2018-03-20T00:32:28.103Z,-4.32
2018-03-20T00:32:32.323Z,-4.32
2018-03-20T00:32:36.437Z,-4.32
2018-03-20T00:32:40.544Z,-4.31
2018-03-20T00:32:44.779Z,-4.31
2018-03-20T00:32:49.008Z,-4.32
2018-03-20T00:32:53.123Z,-4.32
2018-03-20T00:32:57.131Z,-4.32
2018-03-20T00:33:01.360Z,-4.32
2018-03-20T00:33:05.766Z,-4.31
2018-03-20T00:33:09.773Z,-4.32
2018-03-20T00:33:14.005Z,-4.32
2018-03-20T00:33:18.123Z,-4.32
2018-03-20T00:33:22.372Z,-4.33
2018-03-20T00:33:26.593Z,-4.32
2018-03-20T00:33:30.724Z,-4.32
2018-03-20T00:33:35.109Z,-4.32
2018-03-20T00:33:39.328Z,-4.32
2018-03-20T00:33:43.682Z,-4.32
2018-03-20T00:33:47.791Z,-4.32
2018-03-20T00:33:52.016Z,-4.31
2018-03-20T00:33:56.234Z,-4.31
2018-03-20T00:34:00.458Z,-4.31
2018-03-20T00:34:04.575Z,-4.31
2018-03-20T00:34:08.698Z,-4.31
2018-03-20T00:34:12.823Z,-4.32
2018-03-20T00:34:17.064Z,-4.31
2018-03-20T00:34:21.178Z,-4.32
2018-03-20T00:34:25.450Z,-4.31
2018-03-20T00:34:29.454Z,-4.32
2018-03-20T00:34:33.785Z,-4.31
2018-03-20T00:34:37.797Z,-4.32
2018-03-20T00:34:41.914Z,-4.31
2018-03-20T00:34:46.031Z,-4.32
2018-03-20T00:34:50.040Z,-4.31
2018-03-20T00:34:53.941Z,-4.31
2018-03-20T00:34:58.158Z,-4.31
2018-03-20T00:35:02.380Z,-4.31
2018-03-20T00:35:06.491Z,-4.31
2018-03-20T00:35:10.605Z,-4.31
2018-03-20T00:35:14.827Z,-4.31
2018-03-20T00:35:18.875Z,-4.32
2018-03-20T00:35:22.995Z,-4.32
2018-03-20T00:35:27.229Z,-4.31
2018-03-20T00:35:31.456Z,-4.32
2018-03-20T00:35:35.677Z,-4.31
2018-03-20T00:35:39.898Z,-4.31
2018-03-20T00:35:44.018Z,-4.31
2018-03-20T00:35:48.127Z,-4.31
2018-03-20T00:35:52.267Z,-4.31
2018-03-20T00:35:56.637Z,-4.31
2018-03-20T00:36:00.641Z,-4.31
2018-03-20T00:36:04.731Z,-4.31
2018-03-20T00:36:08.738Z,-4.3
2018-03-20T00:36:12.963Z,-4.31
2018-03-20T00:36:17.079Z,-4.3
2018-03-20T00:36:21.406Z,-4.31
2018-03-20T00:36:25.524Z,-4.31
2018-03-20T00:36:29.747Z,-4.31
2018-03-20T00:36:33.967Z,-4.3
2018-03-20T00:36:38.093Z,-4.31
2018-03-20T00:36:42.207Z,-4.31
2018-03-20T00:36:46.322Z,-4.3
2018-03-20T00:36:50.347Z,-4.3
2018-03-20T00:36:54.572Z,-4.3
2018-03-20T00:36:58.702Z,-4.3
2018-03-20T00:37:02.811Z,-4.29
2018-03-20T00:37:06.715Z,-4.3
2018-03-20T00:37:10.830Z,-4.31
2018-03-20T00:37:14.948Z,-4.3
2018-03-20T00:37:19.180Z,-4.3
2018-03-20T00:37:23.297Z,-4.29
2018-03-20T00:37:27.627Z,-4.3
2018-03-20T00:37:31.744Z,-4.3
2018-03-20T00:37:35.858Z,-4.3
2018-03-20T00:37:40.086Z,-4.29
2018-03-20T00:37:44.202Z,-4.29
2018-03-20T00:37:48.322Z,-4.3
2018-03-20T00:37:52.548Z,-4.3
2018-03-20T00:37:56.663Z,-4.3
2018-03-20T00:38:01.142Z,-4.29
2018-03-20T00:38:05.459Z,-4.29
2018-03-20T00:38:09.576Z,-4.29
2018-03-20T00:38:13.797Z,-4.29
2018-03-20T00:38:17.813Z,-4.3
2018-03-20T00:38:22.045Z,-4.28
2018-03-20T00:38:26.272Z,-4.29
2018-03-20T00:38:30.185Z,-4.29
2018-03-20T00:38:34.077Z,-4.29
2018-03-20T00:38:38.187Z,-4.29
2018-03-20T00:38:42.407Z,-4.28
2018-03-20T00:38:46.416Z,-4.29
2018-03-20T00:38:50.741Z,-4.29
2018-03-20T00:38:54.966Z,-4.29
2018-03-20T00:38:59.090Z,-4.29
2018-03-20T00:39:03.435Z,-4.29
2018-03-20T00:39:07.446Z,-4.29
2018-03-20T00:39:11.560Z,-4.29
2018-03-20T00:39:15.562Z,-4.29
2018-03-20T00:39:19.681Z,-4.29
2018-03-20T00:39:23.809Z,-4.28
2018-03-20T00:39:27.710Z,-4.28
2018-03-20T00:39:31.830Z,-4.28
2018-03-20T00:39:36.052Z,-4.28
2018-03-20T00:39:40.165Z,-4.28
2018-03-20T00:39:44.174Z,-4.28
2018-03-20T00:39:48.283Z,-4.28
2018-03-20T00:39:52.404Z,-4.27
2018-03-20T00:39:56.516Z,-4.28
2018-03-20T00:40:00.785Z,-4.29
2018-03-20T00:40:04.691Z,-4.27
2018-03-20T00:40:08.924Z,-4.27
2018-03-20T00:40:13.148Z,-4.28
2018-03-20T00:40:17.268Z,-4.28
2018-03-20T00:40:21.389Z,-4.28
2018-03-20T00:40:25.500Z,-4.28
2018-03-20T00:40:29.728Z,-4.27
2018-03-20T00:40:33.837Z,-4.28
2018-03-20T00:40:37.958Z,-4.27
2018-03-20T00:40:42.068Z,-4.27
2018-03-20T00:40:46.073Z,-4.27
2018-03-20T00:40:50.087Z,-4.27
2018-03-20T00:40:54.425Z,-4.27
2018-03-20T00:40:58.763Z,-4.27
2018-03-20T00:41:02.979Z,-4.27
2018-03-20T00:41:06.985Z,-4.27
2018-03-20T00:41:11.094Z,-4.28
2018-03-20T00:41:15.311Z,-4.28
2018-03-20T00:41:19.526Z,-4.27
2018-03-20T00:41:23.859Z,-4.27
2018-03-20T00:41:27.977Z,-4.26
2018-03-20T00:41:32.212Z,-4.26
2018-03-20T00:41:36.453Z,-4.26
2018-03-20T00:41:40.461Z,-4.27
2018-03-20T00:41:44.465Z,-4.26
2018-03-20T00:41:48.698Z,-4.26
2018-03-20T00:41:52.814Z,-4.26
2018-03-20T00:41:57.045Z,-4.26
2018-03-20T00:42:01.279Z,-4.26
2018-03-20T00:42:05.392Z,-4.25
2018-03-20T00:42:09.399Z,-4.27
2018-03-20T00:42:13.623Z,-4.26
2018-03-20T00:42:17.949Z,-4.26
2018-03-20T00:42:22.180Z,-4.25
2018-03-20T00:42:26.402Z,-4.25
2018-03-20T00:42:30.513Z,-4.26
2018-03-20T00:42:34.731Z,-4.26
2018-03-20T00:42:38.851Z,-4.26
2018-03-20T00:42:42.860Z,-4.25
2018-03-20T00:42:47.087Z,-4.25
2018-03-20T00:42:51.303Z,-4.25
2018-03-20T00:42:55.630Z,-4.25
2018-03-20T00:42:59.642Z,-4.25
2018-03-20T00:43:03.764Z,-4.25
2018-03-20T00:43:07.767Z,-4.24
2018-03-20T00:43:11.876Z,-4.25
2018-03-20T00:43:15.998Z,-4.24
2018-03-20T00:43:20.226Z,-4.25
2018-03-20T00:43:24.120Z,-4.24
2018-03-20T00:43:28.334Z,-4.24
2018-03-20T00:43:32.558Z,-4.25
2018-03-20T00:43:36.789Z,-4.25
2018-03-20T00:43:40.794Z,-4.24
2018-03-20T00:43:44.916Z,-4.25
2018-03-20T00:43:49.143Z,-4.24
2018-03-20T00:43:53.260Z,-4.24
2018-03-20T00:43:57.382Z,-4.24
2018-03-20T00:44:01.388Z,-4.24
2018-03-20T00:44:05.297Z,-4.23
2018-03-20T00:44:09.422Z,-4.24
2018-03-20T00:44:13.538Z,-4.24
2018-03-20T00:44:17.866Z,-4.24
2018-03-20T00:44:21.766Z,-4.24
2018-03-20T00:44:25.659Z,-4.24
2018-03-20T00:44:29.774Z,-4.24
2018-03-20T00:44:33.893Z,-4.24
2018-03-20T00:44:38.009Z,-4.22
2018-03-20T00:44:42.330Z,-4.23
2018-03-20T00:44:46.445Z,-4.23
2018-03-20T00:44:50.771Z,-4.22
2018-03-20T00:44:54.788Z,-4.22
2018-03-20T00:44:58.913Z,-4.22
2018-03-20T00:45:02.974Z,-4.23
2018-03-20T00:45:06.983Z,-4.22
2018-03-20T00:45:11.037Z,-4.22
2018-03-20T00:45:15.146Z,-4.22
2018-03-20T00:45:19.372Z,-4.23
2018-03-20T00:45:23.589Z,-4.21
2018-03-20T00:45:27.599Z,-4.22
2018-03-20T00:45:31.721Z,-4.22
2018-03-20T00:45:35.839Z,-4.22
2018-03-20T00:45:40.059Z,-4.22
2018-03-20T00:45:43.961Z,-4.21
2018-03-20T00:45:48.185Z,-4.22
2018-03-20T00:45:52.191Z,-4.22
2018-03-20T00:45:56.528Z,-4.21
2018-03-20T00:46:00.759Z,-4.21
2018-03-20T00:46:04.874Z,-4.21
2018-03-20T00:46:08.992Z,-4.22
2018-03-20T00:46:13.003Z,-4.21
2018-03-20T00:46:17.110Z,-4.22
2018-03-20T00:46:21.116Z,-4.2
2018-03-20T00:46:25.228Z,-4.21
2018-03-20T00:46:29.394Z,-4.21
2018-03-20T00:46:33.514Z,-4.2
2018-03-20T00:46:37.413Z,-4.21
2018-03-20T00:46:41.529Z,-4.2
2018-03-20T00:46:45.646Z,-4.21
2018-03-20T00:46:49.695Z,-4.2
2018-03-20T00:46:53.926Z,-4.2
2018-03-20T00:46:58.043Z,-4.2
2018-03-20T00:47:02.578Z,-4.21
2018-03-20T00:47:06.701Z,-4.21
2018-03-20T00:47:10.705Z,-4.2
2018-03-20T00:47:14.818Z,-4.21
2018-03-20T00:47:19.051Z,-4.19
2018-03-20T00:47:23.381Z,-4.19
2018-03-20T00:47:27.721Z,-4.2
2018-03-20T00:47:31.846Z,-4.2
2018-03-20T00:47:36.174Z,-4.2
2018-03-20T00:47:40.497Z,-4.2
2018-03-20T00:47:44.720Z,-4.2
2018-03-20T00:47:49.047Z,-4.19
2018-03-20T00:47:53.401Z,-4.19
2018-03-20T00:47:57.515Z,-4.18
2018-03-20T00:48:01.628Z,-4.2
2018-03-20T00:48:05.853Z,-4.19
2018-03-20T00:48:10.072Z,-4.19
2018-03-20T00:48:14.194Z,-4.19
2018-03-20T00:48:18.309Z,-4.19
2018-03-20T00:48:22.308Z,-4.18
2018-03-20T00:48:26.585Z,-4.19
2018-03-20T00:48:30.822Z,-4.18
2018-03-20T00:48:35.050Z,-4.18
2018-03-20T00:48:39.266Z,-4.18
2018-03-20T00:48:43.404Z,-4.19
2018-03-20T00:48:47.410Z,-4.17
2018-03-20T00:48:51.422Z,-4.18
2018-03-20T00:48:55.434Z,-4.17
2018-03-20T00:48:59.541Z,-4.18
2018-03-20T00:49:03.650Z,-4.18
2018-03-20T00:49:07.662Z,-4.18
2018-03-20T00:49:11.787Z,-4.18
2018-03-20T00:49:15.574Z,-4.17
2018-03-20T00:49:19.577Z,-4.17
2018-03-20T00:49:23.798Z,-4.17
2018-03-20T00:49:27.805Z,-4.17
2018-03-20T00:49:32.134Z,-4.17
2018-03-20T00:49:36.250Z,-4.16
2018-03-20T00:49:40.472Z,-4.17
2018-03-20T00:49:44.691Z,-4.18
2018-03-20T00:49:48.914Z,-4.17
2018-03-20T00:49:52.926Z,-4.17
2018-03-20T00:49:57.146Z,-4.16
2018-03-20T00:50:01.255Z,-4.16
2018-03-20T00:50:05.264Z,-4.16
2018-03-20T00:50:09.274Z,-4.17
2018-03-20T00:50:13.600Z,-4.17
2018-03-20T00:50:17.395Z,-4.15
2018-03-20T00:50:21.503Z,-4.17
2018-03-20T00:50:25.832Z,-4.17
2018-03-20T00:50:29.990Z,-4.17
2018-03-20T00:50:34.212Z,-4.16
2018-03-20T00:50:38.323Z,-4.16
2018-03-20T00:50:42.541Z,-4.15
2018-03-20T00:50:46.764Z,-4.17
2018-03-20T00:50:50.772Z,-4.15
2018-03-20T00:50:54.885Z,-4.16
2018-03-20T00:50:58.890Z,-4.15
2018-03-20T00:51:03.310Z,-4.16
2018-03-20T00:51:07.326Z,-4.14
2018-03-20T00:51:11.544Z,-4.15
2018-03-20T00:51:15.889Z,-4.15
2018-03-20T00:51:20.113Z,-4.15
2018-03-20T00:51:24.450Z,-4.14
2018-03-20T00:51:28.458Z,-4.15
2018-03-20T00:51:32.797Z,-4.14
2018-03-20T00:51:37.021Z,-4.14
2018-03-20T00:51:41.262Z,-4.14
2018-03-20T00:51:45.493Z,-4.14
2018-03-20T00:51:49.823Z,-4.14
2018-03-20T00:51:53.724Z,-4.13
2018-03-20T00:51:58.056Z,-4.13
2018-03-20T00:52:02.594Z,-4.13
2018-03-20T00:52:06.499Z,-4.13
2018-03-20T00:52:10.609Z,-4.13
2018-03-20T00:52:14.735Z,-4.13
2018-03-20T00:52:18.954Z,-4.12
2018-03-20T00:52:23.072Z,-4.12
2018-03-20T00:52:27.187Z,-4.13
2018-03-20T00:52:31.196Z,-4.13
2018-03-20T00:52:35.202Z,-4.14
2018-03-20T00:52:39.318Z,-4.13
2018-03-20T00:52:43.433Z,-4.12
2018-03-20T00:52:47.656Z,-4.12
2018-03-20T00:52:51.661Z,-4.12
2018-03-20T00:52:55.880Z,-4.11
2018-03-20T00:52:59.997Z,-4.12
2018-03-20T00:53:04.628Z,-4.11
2018-03-20T00:53:08.530Z,-4.11
2018-03-20T00:53:12.643Z,-4.12
2018-03-20T00:53:16.755Z,-4.11
2018-03-20T00:53:21.089Z,-4.11
2018-03-20T00:53:25.101Z,-4.11
2018-03-20T00:53:29.156Z,-4.1
2018-03-20T00:53:33.384Z,-4.11
2018-03-20T00:53:37.609Z,-4.1